LFMN/NCE METAR and TAF weather

Enter ICAO airport designator
Station Type Date Time Source
LFMN METAR 2019/10/15 21:00 UTC NOAA

LFMN 152100Z 28014KT CAVOK 18/08 Q1010 NOSIG


Station Type Date Time Source
LFMN Decoded METAR 2019/10/15 21:00 UTC NOAA

Nice, France (LFMN) 43-39N 007-12E 10M
Oct 15, 2019 - 05:00 PM EDT / 2019.10.15 2100 UTC
Wind: from the W (280 degrees) at 16 MPH (14 KT):0
Visibility: greater than 7 mile(s):0
Temperature: 64 F (18 C)
Dew Point: 46 F (8 C)
Relative Humidity: 51%
Pressure (altimeter): 29.83 in. Hg (1010 hPa)
ob: LFMN 152100Z 28014KT CAVOK 18/08 Q1010 NOSIG
cycle: 21

Station Type Date Time Source
LFMN TAF 2019/10/15 21:24 UTC NOAA

TAF LFMN 152000Z 1521/1703 31010KT CAVOK
BECMG 1601/1603 36010KT
BECMG 1611/1613 16005KT
BECMG 1619/1621 36005KT

Example: see airport list